Time;durP1;ratioP1;P1;durP2;ratioP2;P2;SDS_P1;SDS_P2;PMS_P1;PMS_P2;Temp;Humidity;BMP_temperature;BMP_pressure;BME280_temperature;BME280_humidity;BME280_pressure;Samples;Min_cycle;Max_cycle;Signal;HPM_P1;HPM_P2
2020/12/31 00:00:44;;;;;;;19.43;10.27;;;6.40;99.90;;;;;;5053272;28;20180;-82
2020/12/31 00:03:10;;;;;;;21.20;10.97;;;6.50;99.90;;;;;;5087049;28;20183;-82
2020/12/31 00:05:36;;;;;;;20.43;11.10;;;6.60;99.90;;;;;;5053479;28;20252;-82
2020/12/31 00:08:01;;;;;;;18.10;11.73;;;6.60;99.90;;;;;;5068338;28;20182;-81
2020/12/31 00:10:30;;;;;;;21.40;11.60;;;6.60;99.90;;;;;;5070198;28;20210;-81
2020/12/31 00:12:57;;;;;;;22.33;11.23;;;6.60;99.90;;;;;;5057413;28;20178;-82
2020/12/31 00:15:24;;;;;;;20.43;10.43;;;6.60;99.90;;;;;;5071721;28;20216;-81
2020/12/31 00:17:49;;;;;;;22.57;10.97;;;6.60;99.90;;;;;;5061052;28;20660;-81
2020/12/31 00:20:16;;;;;;;19.13;9.30;;;6.60;99.90;;;;;;5078869;28;20249;-82
2020/12/31 00:22:41;;;;;;;19.03;9.57;;;6.60;99.90;;;;;;5044350;28;20651;-82
2020/12/31 00:25:09;;;;;;;17.77;10.10;;;6.70;99.90;;;;;;5060339;28;20201;-82
2020/12/31 00:27:35;;;;;;;20.03;9.93;;;6.70;99.90;;;;;;5074866;28;20191;-82
2020/12/31 00:30:01;;;;;;;21.33;10.43;;;6.80;99.90;;;;;;5057478;28;20319;-82
2020/12/31 00:32:27;;;;;;;18.77;10.13;;;6.90;99.90;;;;;;5057478;28;20176;-80
2020/12/31 00:34:52;;;;;;;19.13;10.13;;;6.90;99.90;;;;;;5092577;28;20194;-79
2020/12/31 00:37:18;;;;;;;22.03;11.23;;;7.10;99.90;;;;;;5073865;28;20189;-82
2020/12/31 00:39:44;;;;;;;19.77;10.67;;;7.10;99.90;;;;;;5054809;28;20686;-82
2020/12/31 00:42:09;;;;;;;20.17;10.27;;;7.10;99.90;;;;;;5065813;28;20716;-79
2020/12/31 00:44:35;;;;;;;20.07;10.30;;;7.10;99.90;;;;;;5057638;28;20544;-79
2020/12/31 00:47:01;;;;;;;18.67;10.30;;;7.10;99.90;;;;;;5061075;28;20186;-79
2020/12/31 00:49:26;;;;;;;24.77;11.00;;;7.00;99.90;;;;;;5059845;28;20711;-82
2020/12/31 00:51:52;;;;;;;25.60;11.10;;;7.10;99.90;;;;;;5057193;28;20212;-81
2020/12/31 00:54:18;;;;;;;22.03;11.03;;;7.10;99.90;;;;;;5059605;28;20632;-79
2020/12/31 00:56:45;;;;;;;23.17;10.57;;;7.00;99.90;;;;;;5088878;28;20216;-81
2020/12/31 00:59:11;;;;;;;23.20;11.17;;;7.10;99.90;;;;;;5057155;28;20639;-82
2020/12/31 01:01:37;;;;;;;25.07;12.17;;;7.10;99.90;;;;;;5074277;28;20213;-82
2020/12/31 01:04:03;;;;;;;28.07;12.43;;;7.10;99.90;;;;;;5056539;28;20668;-81
2020/12/31 01:06:37;;;;;;;31.13;12.50;;;7.00;99.90;;;;;;5079213;28;20172;-83
2020/12/31 01:09:09;;;;;;;33.00;13.07;;;7.10;99.90;;;;;;5072744;28;20170;-79
2020/12/31 01:11:38;;;;;;;29.90;13.03;;;7.10;99.90;;;;;;5076886;28;20187;-79
2020/12/31 01:14:05;;;;;;;32.67;12.90;;;7.10;99.90;;;;;;5058341;28;20240;-82
2020/12/31 01:16:31;;;;;;;26.43;8.93;;;7.00;99.90;;;;;;5039398;28;20191;-81
2020/12/31 01:18:56;;;;;;;23.90;8.70;;;6.90;99.90;;;;;;5092065;28;20184;-81
2020/12/31 01:21:22;;;;;;;21.87;8.50;;;6.90;99.90;;;;;;5072003;28;20332;-81
2020/12/31 01:23:48;;;;;;;17.53;6.80;;;6.80;99.90;;;;;;5058628;28;20190;-81
2020/12/31 01:26:13;;;;;;;20.03;6.17;;;6.80;99.90;;;;;;5056643;28;20191;-82
2020/12/31 01:28:40;;;;;;;16.90;5.83;;;6.70;99.90;;;;;;5040188;28;20272;-79
2020/12/31 01:31:08;;;;;;;15.83;4.63;;;6.60;99.90;;;;;;5056614;28;20703;-81
2020/12/31 01:33:39;;;;;;;12.43;3.83;;;6.70;99.90;;;;;;5039860;28;20186;-81
2020/12/31 01:36:08;;;;;;;13.20;3.40;;;6.70;99.90;;;;;;5055446;28;20194;-82
2020/12/31 01:38:34;;;;;;;10.10;3.13;;;6.60;99.90;;;;;;5058362;28;20184;-82
2020/12/31 01:41:00;;;;;;;9.83;2.87;;;6.40;99.90;;;;;;5038915;28;20190;-81
2020/12/31 01:43:26;;;;;;;8.00;3.30;;;6.30;99.90;;;;;;5056086;28;20655;-81
2020/12/31 01:45:54;;;;;;;10.17;3.27;;;6.40;99.90;;;;;;5054833;28;20218;-82
2020/12/31 01:48:20;;;;;;;10.07;2.77;;;6.50;99.90;;;;;;5054263;28;20254;-82
2020/12/31 01:50:46;;;;;;;9.90;2.60;;;6.60;99.90;;;;;;5058942;28;20731;-81
2020/12/31 01:53:15;;;;;;;10.63;2.77;;;6.50;99.90;;;;;;5056505;28;20270;-81
2020/12/31 01:55:42;;;;;;;6.47;2.13;;;6.50;99.90;;;;;;5070586;28;20180;-81
2020/12/31 01:58:08;;;;;;;5.93;2.10;;;6.50;99.90;;;;;;5072101;28;20236;-81
2020/12/31 02:00:34;;;;;;;6.57;2.43;;;6.40;99.90;;;;;;5074839;28;20175;-81
2020/12/31 02:03:01;;;;;;;7.93;2.40;;;6.30;99.90;;;;;;5075663;28;20311;-82
2020/12/31 02:05:27;;;;;;;8.97;2.17;;;6.20;99.90;;;;;;5041275;28;20169;-81
2020/12/31 02:07:53;;;;;;;8.07;2.60;;;6.20;99.90;;;;;;5093298;28;20970;-81
2020/12/31 02:10:18;;;;;;;9.73;2.87;;;6.20;99.90;;;;;;5038364;28;20269;-82
2020/12/31 02:12:44;;;;;;;10.37;2.87;;;6.20;99.90;;;;;;5054018;28;20240;-81
2020/12/31 02:15:14;;;;;;;13.37;3.60;;;6.00;99.90;;;;;;5074091;28;20188;-81
2020/12/31 02:17:41;;;;;;;14.57;3.67;;;5.90;99.90;;;;;;5055072;28;20259;-81
2020/12/31 02:20:07;;;;;;;12.93;3.50;;;5.80;99.90;;;;;;5072802;28;20177;-82
2020/12/31 02:22:32;;;;;;;15.13;4.30;;;5.80;99.90;;;;;;5072963;28;20551;-82
2020/12/31 02:24:58;;;;;;;15.47;4.30;;;5.80;99.90;;;;;;5053497;28;20576;-81
2020/12/31 02:27:24;;;;;;;16.70;4.87;;;5.90;99.90;;;;;;5059138;28;20188;-81
2020/12/31 02:29:51;;;;;;;14.30;4.27;;;5.90;99.90;;;;;;5055509;28;20254;-82
2020/12/31 02:32:17;;;;;;;17.23;5.40;;;5.90;99.90;;;;;;5070077;28;20176;-81
2020/12/31 02:34:42;;;;;;;19.17;5.43;;;5.90;99.90;;;;;;5071778;28;20547;-81
2020/12/31 02:37:08;;;;;;;21.23;5.53;;;6.00;99.90;;;;;;5056686;28;20179;-81
2020/12/31 02:39:34;;;;;;;17.33;5.80;;;5.90;99.90;;;;;;5073509;28;20247;-82
2020/12/31 02:41:59;;;;;;;20.00;5.97;;;5.90;99.90;;;;;;5054981;28;20194;-80
2020/12/31 02:44:25;;;;;;;21.20;7.10;;;6.00;99.90;;;;;;5054211;28;20186;-81
2020/12/31 02:46:51;;;;;;;19.70;5.77;;;6.10;99.90;;;;;;5040456;28;20183;-82
2020/12/31 02:49:16;;;;;;;24.20;6.80;;;6.20;99.90;;;;;;5055334;28;20181;-82
2020/12/31 02:51:46;;;;;;;22.03;6.77;;;6.20;99.90;;;;;;5073341;28;20194;-82
2020/12/31 02:54:12;;;;;;;21.70;6.43;;;6.30;99.90;;;;;;5055368;28;20174;-82
2020/12/31 02:56:37;;;;;;;22.07;7.37;;;6.40;99.90;;;;;;5055908;28;20180;-79
2020/12/31 02:59:03;;;;;;;19.27;6.60;;;6.40;99.90;;;;;;5071403;28;20188;-82
2020/12/31 03:01:29;;;;;;;18.30;6.20;;;6.40;99.90;;;;;;5040094;28;20283;-81
2020/12/31 03:03:54;;;;;;;18.67;6.83;;;6.40;99.90;;;;;;5072372;28;20182;-82
2020/12/31 03:06:20;;;;;;;21.03;6.13;;;6.50;99.90;;;;;;5076407;28;20183;-83
2020/12/31 03:08:48;;;;;;;15.63;5.90;;;6.60;99.90;;;;;;5039040;28;20194;-82
2020/12/31 03:11:19;;;;;;;20.73;6.70;;;6.50;99.90;;;;;;5040268;28;20218;-82
2020/12/31 03:13:45;;;;;;;18.73;6.27;;;6.40;99.90;;;;;;5054620;28;20282;-82
2020/12/31 03:16:11;;;;;;;16.17;6.10;;;6.40;99.90;;;;;;5076326;28;20264;-82
2020/12/31 03:18:37;;;;;;;15.97;5.87;;;6.50;99.90;;;;;;5069826;28;20190;-81
2020/12/31 03:21:03;;;;;;;12.27;5.20;;;6.40;99.90;;;;;;5043452;28;20229;-81
2020/12/31 03:23:29;;;;;;;13.40;5.40;;;6.40;99.90;;;;;;5041193;28;20177;-82
2020/12/31 03:25:54;;;;;;;12.37;5.10;;;6.30;99.90;;;;;;5037725;28;20198;-81
2020/12/31 03:28:20;;;;;;;12.63;5.10;;;6.30;99.90;;;;;;5072772;28;20249;-82
2020/12/31 03:30:46;;;;;;;11.40;5.27;;;6.20;99.90;;;;;;5054027;28;20229;-81
2020/12/31 03:33:13;;;;;;;11.63;5.27;;;6.30;99.90;;;;;;5052910;28;20187;-81
2020/12/31 03:35:47;;;;;;;14.20;5.50;;;6.20;99.90;;;;;;5038130;28;20187;-82
2020/12/31 03:38:14;;;;;;;11.37;5.17;;;6.20;99.90;;;;;;5068767;28;20293;-82
2020/12/31 03:40:40;;;;;;;13.27;5.10;;;6.20;99.90;;;;;;5053079;28;20197;-82
2020/12/31 03:43:07;;;;;;;11.67;5.17;;;6.20;99.90;;;;;;5056528;28;20199;-81
2020/12/31 03:45:33;;;;;;;11.40;5.27;;;6.30;99.90;;;;;;5069387;28;20650;-82
2020/12/31 03:48:00;;;;;;;9.13;4.77;;;6.30;99.90;;;;;;5054353;28;20216;-79
2020/12/31 03:50:25;;;;;;;12.43;5.00;;;6.30;99.90;;;;;;5056235;28;20164;-79
2020/12/31 03:52:51;;;;;;;11.67;4.30;;;6.40;99.90;;;;;;5054870;28;20952;-82
2020/12/31 03:55:17;;;;;;;11.80;4.90;;;6.40;99.90;;;;;;5056681;28;20652;-81
2020/12/31 03:57:43;;;;;;;13.50;5.00;;;6.40;99.90;;;;;;5053103;28;20288;-82
2020/12/31 04:00:10;;;;;;;10.47;4.77;;;6.50;99.90;;;;;;5055494;28;20197;-81
2020/12/31 04:02:35;;;;;;;10.90;4.70;;;6.60;99.90;;;;;;5067273;28;20305;-81
2020/12/31 04:05:02;;;;;;;10.67;4.70;;;6.60;99.90;;;;;;5056325;28;20269;-81
2020/12/31 04:07:27;;;;;;;9.23;5.03;;;6.50;99.90;;;;;;5058040;28;20198;-81
2020/12/31 04:09:53;;;;;;;9.40;4.70;;;6.50;99.90;;;;;;5039243;28;20215;-81
2020/12/31 04:12:19;;;;;;;15.33;5.10;;;6.50;99.90;;;;;;5041648;28;20179;-81
2020/12/31 04:14:44;;;;;;;11.73;5.03;;;6.50;99.90;;;;;;5055969;28;20177;-81
2020/12/31 04:17:11;;;;;;;8.93;4.77;;;6.40;99.90;;;;;;5071910;28;21104;-81
2020/12/31 04:19:41;;;;;;;11.67;5.30;;;6.50;99.90;;;;;;5039696;28;20187;-81
2020/12/31 04:22:08;;;;;;;11.93;5.10;;;6.50;99.90;;;;;;5085126;28;20307;-81
2020/12/31 04:24:35;;;;;;;10.77;5.37;;;6.50;99.90;;;;;;5059221;28;20677;-81
2020/12/31 04:27:01;;;;;;;10.93;5.67;;;6.50;99.90;;;;;;5064888;28;20937;-81
2020/12/31 04:29:26;;;;;;;10.17;5.30;;;6.50;99.90;;;;;;5054523;28;20238;-81
2020/12/31 04:31:52;;;;;;;11.77;5.03;;;6.40;99.90;;;;;;5055656;28;20543;-81
2020/12/31 04:34:18;;;;;;;10.10;5.40;;;6.40;99.90;;;;;;5071803;28;20246;-81
2020/12/31 04:36:43;;;;;;;10.73;5.73;;;6.20;99.90;;;;;;5041351;28;20206;-81
2020/12/31 04:39:09;;;;;;;11.27;5.93;;;6.20;99.90;;;;;;5054976;28;20176;-81
2020/12/31 04:41:35;;;;;;;13.10;5.40;;;6.30;99.90;;;;;;5058368;28;20208;-81
2020/12/31 04:44:05;;;;;;;14.93;6.27;;;6.30;99.90;;;;;;5053896;28;20181;-81
2020/12/31 04:46:31;;;;;;;11.43;5.93;;;6.50;99.90;;;;;;5052793;28;20237;-81
2020/12/31 04:49:11;;;;;;;12.27;5.83;;;6.40;99.90;;;;;;5072228;28;20528;-81
2020/12/31 04:51:39;;;;;;;14.37;6.77;;;6.30;99.90;;;;;;5036761;28;20182;-81
2020/12/31 04:54:07;;;;;;;15.57;6.73;;;6.20;99.90;;;;;;5056008;28;20193;-81
2020/12/31 04:56:37;;;;;;;14.13;7.10;;;6.00;99.90;;;;;;5054107;28;20189;-81
2020/12/31 04:59:04;;;;;;;14.17;6.20;;;6.00;99.90;;;;;;5074837;28;20691;-81
2020/12/31 05:01:30;;;;;;;14.67;6.40;;;5.90;99.90;;;;;;5057609;28;20225;-81
2020/12/31 05:03:55;;;;;;;16.20;7.27;;;5.90;99.90;;;;;;5057453;28;20251;-81
2020/12/31 05:06:22;;;;;;;13.27;6.13;;;5.90;99.90;;;;;;5077769;28;20563;-81
2020/12/31 05:08:49;;;;;;;14.83;7.20;;;6.00;99.90;;;;;;5059886;28;20588;-81
2020/12/31 05:11:15;;;;;;;15.37;6.53;;;6.10;99.90;;;;;;5057398;28;20274;-80
2020/12/31 05:13:49;;;;;;;14.83;6.67;;;6.20;99.90;;;;;;5075497;28;20616;-81
2020/12/31 05:16:27;;;;;;;14.20;6.63;;;6.20;99.90;;;;;;5058686;28;20182;-81
2020/12/31 05:18:53;;;;;;;13.90;6.73;;;6.20;99.90;;;;;;5059301;28;20528;-81
2020/12/31 05:21:19;;;;;;;12.90;6.27;;;6.30;99.90;;;;;;5056269;28;20211;-81
2020/12/31 05:23:45;;;;;;;11.27;6.10;;;6.30;99.90;;;;;;5060039;28;20183;-80
2020/12/31 05:26:11;;;;;;;12.20;6.20;;;6.20;99.90;;;;;;5077176;28;20283;-81
2020/12/31 05:28:37;;;;;;;14.50;6.87;;;6.20;99.90;;;;;;5058146;28;20186;-81
2020/12/31 05:31:09;;;;;;;14.43;6.50;;;6.10;99.90;;;;;;5058529;28;20260;-81
2020/12/31 05:33:39;;;;;;;14.47;7.07;;;6.30;99.90;;;;;;5072691;28;20208;-81
2020/12/31 05:36:25;;;;;;;16.90;7.40;;;6.40;99.90;;;;;;5054709;28;20183;-81
2020/12/31 05:38:57;;;;;;;13.20;6.80;;;6.60;99.90;;;;;;5042631;28;20241;-81
2020/12/31 05:41:36;;;;;;;11.73;6.47;;;6.40;99.90;;;;;;5054935;28;20213;-81
2020/12/31 05:44:07;;;;;;;13.17;6.00;;;6.20;99.90;;;;;;5074538;28;20221;-81
2020/12/31 05:46:35;;;;;;;12.03;6.30;;;6.20;99.90;;;;;;5046760;28;20647;-81
2020/12/31 05:49:03;;;;;;;12.33;6.37;;;6.10;99.90;;;;;;5070548;28;20198;-81
2020/12/31 05:51:34;;;;;;;12.77;6.50;;;6.00;99.90;;;;;;5054752;28;20191;-81
2020/12/31 05:54:10;;;;;;;14.00;6.50;;;6.10;99.90;;;;;;5039709;28;20189;-81
2020/12/31 05:56:43;;;;;;;12.97;7.17;;;6.00;99.90;;;;;;5058006;28;20194;-81
2020/12/31 05:59:25;;;;;;;13.57;6.47;;;6.10;99.90;;;;;;5060379;28;20181;-81
2020/12/31 06:01:56;;;;;;;13.30;6.87;;;6.20;99.90;;;;;;5088902;28;20207;-81
2020/12/31 06:04:46;;;;;;;12.63;6.90;;;6.30;99.90;;;;;;5071356;28;20176;-81
2020/12/31 06:07:45;;;;;;;13.33;6.73;;;6.30;99.90;;;;;;5062727;28;20277;-81
2020/12/31 06:10:14;;;;;;;13.87;7.10;;;6.30;99.90;;;;;;5089059;28;20657;-81
2020/12/31 06:12:47;;;;;;;12.13;7.00;;;6.40;99.90;;;;;;5053777;28;20168;-81
2020/12/31 06:15:17;;;;;;;13.57;7.07;;;6.40;99.90;;;;;;5058529;28;20271;-81
2020/12/31 06:17:48;;;;;;;13.20;6.33;;;6.40;99.90;;;;;;5056580;28;20206;-81
2020/12/31 06:20:18;;;;;;;11.77;5.43;;;6.40;99.90;;;;;;5071572;28;20209;-81
2020/12/31 06:22:56;;;;;;;10.07;5.23;;;6.30;99.90;;;;;;5055515;28;20209;-81
2020/12/31 06:25:34;;;;;;;10.40;5.47;;;6.00;99.90;;;;;;5073371;28;20243;-81
2020/12/31 06:28:04;;;;;;;10.90;5.07;;;5.90;99.90;;;;;;5057607;28;20206;-81
2020/12/31 06:30:31;;;;;;;11.10;5.30;;;5.80;99.90;;;;;;5089451;28;20251;-80
2020/12/31 06:33:00;;;;;;;11.13;5.20;;;5.70;99.90;;;;;;5092930;28;20977;-81
2020/12/31 06:35:26;;;;;;;9.97;4.80;;;5.70;99.90;;;;;;5055414;28;20549;-81
2020/12/31 06:37:57;;;;;;;9.93;4.80;;;5.80;99.90;;;;;;5057469;28;20527;-80
2020/12/31 06:40:26;;;;;;;9.67;4.90;;;5.80;99.90;;;;;;5093066;28;20239;-81
2020/12/31 06:43:07;;;;;;;9.23;5.07;;;5.90;99.90;;;;;;5055373;28;20261;-81
2020/12/31 06:45:46;;;;;;;8.17;4.33;;;5.80;99.90;;;;;;5056368;28;20316;-80
2020/12/31 06:48:24;;;;;;;14.70;4.97;;;5.90;99.90;;;;;;5072583;28;20181;-81
2020/12/31 06:50:54;;;;;;;9.57;4.40;;;5.90;99.90;;;;;;5086600;28;20200;-81
2020/12/31 06:53:29;;;;;;;8.30;4.40;;;5.80;99.90;;;;;;5054876;28;20192;-81
2020/12/31 06:55:55;;;;;;;8.73;4.90;;;5.80;99.90;;;;;;5086641;28;20183;-81
2020/12/31 06:58:25;;;;;;;10.43;4.83;;;5.80;99.90;;;;;;5037911;28;20199;-81
2020/12/31 07:00:52;;;;;;;9.50;5.20;;;5.90;99.90;;;;;;5053198;28;20212;-81
2020/12/31 07:03:39;;;;;;;8.70;4.53;;;5.90;99.90;;;;;;5087440;28;20201;-81
2020/12/31 07:06:20;;;;;;;8.93;4.97;;;5.80;99.90;;;;;;5072375;28;20181;-81
2020/12/31 07:08:50;;;;;;;8.90;5.13;;;5.80;99.90;;;;;;5090124;28;20565;-81
2020/12/31 07:11:36;;;;;;;10.77;5.53;;;5.90;99.90;;;;;;5058237;28;20647;-81
2020/12/31 07:14:09;;;;;;;10.03;5.07;;;5.80;99.90;;;;;;5053593;28;20738;-81
2020/12/31 07:16:44;;;;;;;9.87;5.20;;;5.80;99.90;;;;;;5072233;28;20214;-81
2020/12/31 07:19:10;;;;;;;9.73;5.40;;;5.70;99.90;;;;;;5051505;28;20181;-81
2020/12/31 07:21:37;;;;;;;10.13;5.47;;;5.70;99.90;;;;;;5043673;28;20203;-81
2020/12/31 07:24:24;;;;;;;11.63;5.27;;;5.70;99.90;;;;;;5054970;28;20186;-81
2020/12/31 07:26:54;;;;;;;11.13;5.70;;;5.60;99.90;;;;;;5036819;28;20555;-81
2020/12/31 07:29:33;;;;;;;9.63;5.10;;;5.80;99.90;;;;;;5035996;28;20230;-81
2020/12/31 07:32:02;;;;;;;10.93;6.00;;;5.80;99.90;;;;;;5053723;28;20195;-81
2020/12/31 07:34:32;;;;;;;10.53;5.80;;;5.90;99.90;;;;;;5051358;28;20668;-81
2020/12/31 07:37:05;;;;;;;10.33;5.80;;;6.00;99.90;;;;;;5034383;28;20182;-81
2020/12/31 07:39:33;;;;;;;10.20;5.83;;;5.80;99.90;;;;;;5069167;28;20188;-81
2020/12/31 07:42:16;;;;;;;12.37;6.10;;;5.70;99.90;;;;;;5066024;28;20574;-81
2020/12/31 07:44:49;;;;;;;10.93;5.53;;;5.60;99.90;;;;;;5067332;28;20317;-81
2020/12/31 07:47:16;;;;;;;10.97;5.77;;;5.70;99.90;;;;;;5046412;28;20222;-81
2020/12/31 07:49:46;;;;;;;11.60;6.40;;;5.80;99.90;;;;;;5049196;28;20178;-81
2020/12/31 07:52:12;;;;;;;13.83;6.40;;;5.90;99.90;;;;;;5048965;28;20194;-81
2020/12/31 07:54:38;;;;;;;11.63;6.40;;;5.90;99.90;;;;;;5048642;28;20271;-81
2020/12/31 07:57:05;;;;;;;14.40;6.83;;;6.00;99.90;;;;;;5067302;28;20211;-81
2020/12/31 07:59:31;;;;;;;11.00;6.37;;;5.90;99.90;;;;;;5050681;28;20187;-81
2020/12/31 08:02:04;;;;;;;11.13;6.53;;;5.90;99.90;;;;;;5051291;28;20190;-81
2020/12/31 08:04:29;;;;;;;11.63;6.70;;;5.90;99.90;;;;;;5049040;28;20200;-81
2020/12/31 08:06:55;;;;;;;11.13;6.43;;;5.90;99.90;;;;;;5065424;28;20250;-81
2020/12/31 08:09:22;;;;;;;10.70;6.03;;;5.90;99.90;;;;;;5049989;28;20177;-80
2020/12/31 08:11:51;;;;;;;12.00;6.50;;;5.90;99.90;;;;;;5037321;28;20183;-81
2020/12/31 08:14:17;;;;;;;11.50;6.70;;;5.90;99.90;;;;;;5048136;28;20701;-81
2020/12/31 08:16:43;;;;;;;13.33;6.57;;;5.80;99.90;;;;;;5049922;28;20191;-81
2020/12/31 08:19:09;;;;;;;14.40;7.50;;;5.70;99.90;;;;;;5032817;28;20637;-81
2020/12/31 08:21:36;;;;;;;12.40;7.30;;;5.50;99.90;;;;;;5049753;28;20207;-81
2020/12/31 08:24:08;;;;;;;14.67;8.03;;;5.20;99.90;;;;;;5046406;28;20206;-80
2020/12/31 08:26:36;;;;;;;13.90;7.77;;;5.30;99.90;;;;;;5062064;28;20181;-81
2020/12/31 08:29:03;;;;;;;15.37;8.17;;;5.50;99.90;;;;;;5049659;28;20183;-81
2020/12/31 08:31:30;;;;;;;14.33;8.20;;;5.50;99.90;;;;;;5055984;28;20195;-81
2020/12/31 08:34:00;;;;;;;14.00;8.43;;;5.70;99.90;;;;;;5072611;28;20204;-82
2020/12/31 08:36:26;;;;;;;12.77;7.90;;;5.80;99.90;;;;;;5087159;28;20209;-81
2020/12/31 08:38:58;;;;;;;14.63;7.90;;;6.00;99.90;;;;;;5075384;28;20215;-81
2020/12/31 08:41:25;;;;;;;13.63;7.80;;;5.90;99.90;;;;;;5070651;28;20208;-80
2020/12/31 08:43:52;;;;;;;14.73;8.23;;;5.90;99.90;;;;;;5061420;28;20549;-80
2020/12/31 08:46:20;;;;;;;23.40;9.33;;;6.00;99.90;;;;;;5058721;28;20233;-80
2020/12/31 08:48:54;;;;;;;24.90;9.47;;;6.00;99.90;;;;;;5056272;28;20332;-80
2020/12/31 08:51:20;;;;;;;86.93;12.40;;;5.90;99.90;;;;;;5074380;28;20184;-80
2020/12/31 08:53:54;;;;;;;101.87;13.57;;;6.00;99.90;;;;;;5070202;28;20181;-80
2020/12/31 08:56:22;;;;;;;16.80;9.40;;;6.00;99.90;;;;;;5042441;28;20205;-80
2020/12/31 08:58:47;;;;;;;19.00;9.70;;;6.00;99.90;;;;;;5068851;28;20203;-80
2020/12/31 09:01:28;;;;;;;17.47;10.10;;;6.10;99.90;;;;;;5072041;28;20236;-80
2020/12/31 09:04:11;;;;;;;16.20;9.67;;;6.10;99.90;;;;;;5054739;28;20593;-80
2020/12/31 09:06:42;;;;;;;16.60;9.53;;;6.20;99.90;;;;;;5073359;28;20555;-80
2020/12/31 09:09:28;;;;;;;14.93;8.47;;;6.30;99.90;;;;;;5073114;28;20220;-80
2020/12/31 09:12:08;;;;;;;14.70;8.50;;;6.40;99.90;;;;;;5058912;28;20190;-80
2020/12/31 09:14:54;;;;;;;15.63;8.90;;;6.40;99.90;;;;;;5039743;28;20191;-80
2020/12/31 09:17:24;;;;;;;13.50;8.37;;;6.40;99.90;;;;;;5054377;28;20192;-80
2020/12/31 09:19:54;;;;;;;17.97;11.33;;;6.50;99.90;;;;;;5074138;28;20215;-79
2020/12/31 09:22:20;;;;;;;16.37;10.40;;;6.50;99.90;;;;;;5072821;28;20199;-80
2020/12/31 09:24:46;;;;;;;15.87;9.37;;;6.60;99.90;;;;;;5075960;28;21015;-80
2020/12/31 09:27:20;;;;;;;13.83;8.53;;;6.60;99.90;;;;;;5039179;28;20210;-81
2020/12/31 09:29:46;;;;;;;15.03;9.00;;;6.60;99.90;;;;;;5048425;28;20596;-81
2020/12/31 09:32:11;;;;;;;13.93;8.33;;;6.60;99.90;;;;;;5068482;28;20201;-80
2020/12/31 09:34:37;;;;;;;14.93;8.90;;;6.70;99.90;;;;;;5051824;28;20209;-80
2020/12/31 09:37:03;;;;;;;16.07;9.00;;;6.60;99.90;;;;;;5051079;28;20814;-80
2020/12/31 09:39:29;;;;;;;13.77;8.43;;;6.70;99.90;;;;;;5051479;28;20188;-80
2020/12/31 09:41:54;;;;;;;16.33;9.03;;;6.70;99.90;;;;;;5050691;28;20215;-80
2020/12/31 09:44:20;;;;;;;15.47;9.07;;;6.80;99.90;;;;;;5052142;28;20200;-80
2020/12/31 09:46:46;;;;;;;14.00;8.73;;;6.80;99.90;;;;;;5051691;28;20521;-80
2020/12/31 09:49:12;;;;;;;15.97;9.67;;;6.80;99.90;;;;;;5066294;28;20186;-80
2020/12/31 09:51:37;;;;;;;16.97;9.53;;;6.80;99.90;;;;;;5069194;28;20631;-80
2020/12/31 09:54:03;;;;;;;14.83;9.10;;;6.70;99.90;;;;;;5068864;28;20238;-80
2020/12/31 09:56:29;;;;;;;14.03;8.73;;;6.70;99.90;;;;;;5051610;28;20554;-80
2020/12/31 09:58:58;;;;;;;13.87;8.33;;;6.80;99.90;;;;;;5053533;28;20250;-80
2020/12/31 10:01:27;;;;;;;17.07;8.60;;;6.90;99.90;;;;;;5051492;28;20244;-81
2020/12/31 10:03:53;;;;;;;12.80;7.90;;;7.00;99.90;;;;;;5038041;28;20247;-80
2020/12/31 10:06:18;;;;;;;15.07;8.83;;;7.00;99.90;;;;;;5052207;28;20170;-80
2020/12/31 10:08:44;;;;;;;14.47;8.20;;;7.10;99.90;;;;;;5086967;28;20194;-81
2020/12/31 10:11:10;;;;;;;15.20;8.53;;;7.30;99.90;;;;;;5070743;28;20180;-81
2020/12/31 10:13:36;;;;;;;15.57;8.33;;;7.30;99.90;;;;;;5051821;28;20192;-80
2020/12/31 10:16:03;;;;;;;14.87;8.83;;;7.40;99.90;;;;;;5035507;28;20281;-81
2020/12/31 10:18:29;;;;;;;13.67;9.00;;;7.50;99.90;;;;;;5055163;28;20945;-81
2020/12/31 10:20:55;;;;;;;12.73;7.70;;;7.70;99.90;;;;;;5051372;28;20182;-81
2020/12/31 10:23:21;;;;;;;12.53;7.67;;;7.70;99.90;;;;;;5036305;28;20206;-80
2020/12/31 10:25:48;;;;;;;12.50;7.60;;;7.70;99.90;;;;;;5066712;28;20185;-81
2020/12/31 10:28:14;;;;;;;16.07;8.10;;;7.70;99.90;;;;;;5052858;28;20179;-81
2020/12/31 10:30:39;;;;;;;16.37;7.93;;;7.80;99.90;;;;;;5047423;28;20234;-80
2020/12/31 10:33:05;;;;;;;13.93;7.80;;;7.90;99.90;;;;;;5032187;28;20199;-81
2020/12/31 10:35:30;;;;;;;12.67;7.93;;;8.00;99.90;;;;;;5047558;28;20186;-80
2020/12/31 10:37:56;;;;;;;14.53;8.23;;;8.10;99.90;;;;;;5049603;28;20184;-80
2020/12/31 10:40:22;;;;;;;16.13;9.70;;;8.10;99.90;;;;;;5048790;28;20183;-81
2020/12/31 10:42:47;;;;;;;15.10;9.60;;;8.10;99.90;;;;;;5065765;28;20218;-81
2020/12/31 10:45:13;;;;;;;17.17;11.20;;;8.20;99.90;;;;;;5064053;28;20322;-81
2020/12/31 10:47:39;;;;;;;15.40;9.50;;;8.30;99.90;;;;;;5046906;28;20220;-81
2020/12/31 10:50:05;;;;;;;15.90;10.13;;;8.20;99.90;;;;;;5047213;28;20257;-81
2020/12/31 10:52:30;;;;;;;14.90;9.30;;;7.90;99.90;;;;;;5032349;28;20204;-81
2020/12/31 10:54:56;;;;;;;16.00;10.83;;;7.80;99.90;;;;;;5047072;28;20216;-81
2020/12/31 10:57:23;;;;;;;19.87;10.50;;;7.90;99.90;;;;;;5031787;28;20195;-80
2020/12/31 10:59:48;;;;;;;20.53;13.63;;;8.00;99.90;;;;;;5048064;28;20210;-80
2020/12/31 11:02:14;;;;;;;21.17;13.60;;;8.10;99.90;;;;;;5047872;28;20706;-80
2020/12/31 11:04:40;;;;;;;19.43;10.77;;;7.90;99.90;;;;;;5046810;28;20219;-80
2020/12/31 11:07:05;;;;;;;18.23;10.77;;;7.60;99.90;;;;;;5046263;28;20262;-79
2020/12/31 11:09:31;;;;;;;16.97;11.90;;;7.50;99.90;;;;;;5047155;28;20200;-80
2020/12/31 11:11:57;;;;;;;21.03;12.50;;;7.50;99.90;;;;;;5028861;28;20212;-80
2020/12/31 11:14:22;;;;;;;17.80;10.70;;;7.50;99.90;;;;;;5048307;28;20258;-80
2020/12/31 11:16:50;;;;;;;16.93;11.07;;;7.40;99.90;;;;;;5046341;28;20196;-80
2020/12/31 11:19:16;;;;;;;18.57;10.27;;;7.00;99.90;;;;;;5046602;28;20184;-80
2020/12/31 11:21:41;;;;;;;19.23;11.30;;;7.10;99.90;;;;;;5045860;28;20208;-79
2020/12/31 11:24:07;;;;;;;19.87;11.63;;;7.20;99.90;;;;;;5029935;28;20180;-80
2020/12/31 11:26:33;;;;;;;17.83;10.43;;;7.30;99.90;;;;;;5043348;28;20550;-81
2020/12/31 11:28:59;;;;;;;19.43;10.93;;;7.40;99.90;;;;;;5046402;28;20202;-81
2020/12/31 11:31:26;;;;;;;19.43;9.80;;;6.90;99.90;;;;;;5066057;28;20185;-80
2020/12/31 11:33:55;;;;;;;15.40;9.27;;;7.00;99.90;;;;;;5047861;28;20312;-80
2020/12/31 11:36:21;;;;;;;17.07;10.20;;;7.20;99.90;;;;;;5067233;28;20356;-80
2020/12/31 11:38:47;;;;;;;17.27;10.00;;;7.40;99.90;;;;;;5050010;28;20189;-79
2020/12/31 11:41:13;;;;;;;15.83;9.87;;;7.70;99.90;;;;;;5047585;28;20650;-80
2020/12/31 11:43:39;;;;;;;16.40;10.73;;;7.70;99.90;;;;;;5049820;28;20197;-79
2020/12/31 11:46:07;;;;;;;15.97;9.80;;;7.50;99.90;;;;;;5047704;28;20188;-79
2020/12/31 11:48:34;;;;;;;17.00;10.60;;;7.50;99.90;;;;;;5067675;28;20203;-80
2020/12/31 11:51:01;;;;;;;18.83;10.77;;;7.40;99.90;;;;;;5049377;28;20180;-81
2020/12/31 11:53:27;;;;;;;16.70;10.60;;;7.30;99.90;;;;;;5040311;28;20186;-82
2020/12/31 11:55:54;;;;;;;19.33;11.30;;;7.10;99.90;;;;;;5033605;28;20276;-83
2020/12/31 11:58:19;;;;;;;19.43;11.43;;;7.00;99.90;;;;;;5034504;28;20175;-82
2020/12/31 12:00:45;;;;;;;17.63;10.40;;;7.00;99.90;;;;;;5049935;28;20188;-82
2020/12/31 12:03:11;;;;;;;16.57;10.20;;;7.00;99.90;;;;;;5067839;28;20730;-82
2020/12/31 12:05:37;;;;;;;18.37;10.87;;;6.80;99.90;;;;;;5069120;28;20173;-84
2020/12/31 12:08:05;;;;;;;17.47;10.00;;;6.80;99.90;;;;;;5093788;28;20548;-82
2020/12/31 12:10:31;;;;;;;16.47;9.33;;;7.00;99.90;;;;;;5044728;28;20533;-83
2020/12/31 12:12:57;;;;;;;16.63;9.83;;;7.00;99.90;;;;;;5076107;28;20181;-83
2020/12/31 12:15:22;;;;;;;16.10;8.80;;;6.90;99.90;;;;;;5058488;28;20199;-83
2020/12/31 12:17:49;;;;;;;13.67;7.87;;;6.60;99.90;;;;;;5061290;28;20186;-83
2020/12/31 12:20:16;;;;;;;13.00;8.10;;;6.70;99.90;;;;;;5058098;28;20200;-83
2020/12/31 12:22:41;;;;;;;13.67;8.27;;;6.80;99.90;;;;;;5042981;28;20214;-83
2020/12/31 12:25:08;;;;;;;16.27;8.30;;;7.00;99.90;;;;;;5057638;28;20267;-83
2020/12/31 12:27:34;;;;;;;22.57;12.47;;;7.20;99.90;;;;;;5059054;28;20231;-82
2020/12/31 12:30:01;;;;;;;21.37;13.13;;;7.20;99.90;;;;;;5077207;28;20232;-82
2020/12/31 12:32:26;;;;;;;22.27;14.33;;;7.10;99.90;;;;;;5074239;28;20185;-83
2020/12/31 12:34:52;;;;;;;24.90;14.10;;;7.10;99.90;;;;;;5061742;28;20554;-82
2020/12/31 12:37:20;;;;;;;23.57;14.00;;;7.10;99.90;;;;;;5059334;28;20701;-83
2020/12/31 12:39:46;;;;;;;21.60;13.03;;;7.00;99.90;;;;;;5057865;28;20600;-82
2020/12/31 12:42:12;;;;;;;19.70;12.43;;;6.90;99.90;;;;;;5074081;28;20193;-82
2020/12/31 12:44:37;;;;;;;20.57;12.13;;;6.70;99.90;;;;;;5041164;28;20242;-83
2020/12/31 12:47:03;;;;;;;18.17;11.43;;;6.50;99.90;;;;;;5057013;28;20227;-83
2020/12/31 12:49:29;;;;;;;20.33;12.43;;;6.50;99.90;;;;;;5071606;28;20322;-82